Estación de Los Angeles

Ultimos registro cada 15 minutos 72
Estación Fecha / Hora Temperatura Humedad Lluvia Velocidad Dirección Radiación Presion
72 Los Angeles 07-05-2026 17:45 10 83,3 0 0 111 6,9 1016,3
71 Los Angeles 07-05-2026 17:30 10,3 80,8 0 0 58 13,1 1016,6
70 Los Angeles 07-05-2026 17:15 10,8 78,5 0 0 22 28,1 1016,5
69 Los Angeles 07-05-2026 17:00 11,2 71,6 0 0 39 50,6 1016,3
68 Los Angeles 07-05-2026 16:45 11,2 78,4 0 0 160 55,6 1016,5
67 Los Angeles 07-05-2026 16:30 11,3 76 0 0 160 53,1 1017,1
66 Los Angeles 07-05-2026 16:15 11,2 73,3 0 0 145 60,6 1017,1
65 Los Angeles 07-05-2026 16:00 11,5 72 0 0,3 117 55,6 1017,1
64 Los Angeles 07-05-2026 15:45 12,1 69,5 0 0 84 118,1 1016,8
63 Los Angeles 07-05-2026 15:30 12 65,9 0 0,3 107 119,4 1016,7
62 Los Angeles 07-05-2026 15:15 12 66,6 0 0,3 136 118,1 1016,9
61 Los Angeles 07-05-2026 15:00 12,4 64,4 0 0,3 149 159,4 1017
60 Los Angeles 07-05-2026 14:45 12,3 60,9 0 0,3 105 149,4 1017
59 Los Angeles 07-05-2026 14:30 12,6 62,2 0 0,3 121 164,4 1017,1
58 Los Angeles 07-05-2026 14:15 12,9 62,3 0 0 118 219,4 1017,2
57 Los Angeles 07-05-2026 14:00 12,7 61,7 0 0,3 147 198,1 1017,3
56 Los Angeles 07-05-2026 13:45 12,9 59,3 0 0,3 147 233,1 1017,4
55 Los Angeles 07-05-2026 13:30 13 60,9 0 0,3 117 298,1 1017,1
54 Los Angeles 07-05-2026 13:15 12,9 61,3 0 0,3 124 286,9 1017,5
53 Los Angeles 07-05-2026 13:00 13,2 61 0 0,3 212 281,9 1017,3
52 Los Angeles 07-05-2026 12:45 12,9 60,6 0 0,7 177 335,6 1017,8
51 Los Angeles 07-05-2026 12:30 13,1 64,3 0 0,3 159 333,1 1018,2
50 Los Angeles 07-05-2026 12:15 12,9 63,2 0 0,3 131 244,4 1018
49 Los Angeles 07-05-2026 12:00 13,6 61,4 0 0,3 146 319,4 1017,6
48 Los Angeles 07-05-2026 11:45 14,4 64 0 0,7 171 485,6 1017,9
47 Los Angeles 07-05-2026 11:30 14,5 71 0 0,7 110 613,1 1018,3
46 Los Angeles 07-05-2026 11:15 13,9 74,2 0 1 93 571,9 1018,5
45 Los Angeles 07-05-2026 11:00 13,6 75,6 0 0,7 132 625,6 1018,3
44 Los Angeles 07-05-2026 10:45 13,2 78,3 0 0,7 126 559,4 1018,5
43 Los Angeles 07-05-2026 10:30 14,1 82,4 0 0,7 107 616,9 1018,4
42 Los Angeles 07-05-2026 10:15 12,5 86,5 0 0,3 91 449,4 1018,5
41 Los Angeles 07-05-2026 10:00 12 95,2 0 0,3 129 378,1 1018,3
40 Los Angeles 07-05-2026 09:45 10,2 97,5 0 0 93 314,4 1018,2
39 Los Angeles 07-05-2026 09:30 8,8 98,1 0 0 167 84,4 1018,5
38 Los Angeles 07-05-2026 09:15 7,9 98,1 0 0 199 59,4 1018,2
37 Los Angeles 07-05-2026 09:00 7,7 98 0 0,3 241 53,1 1017,7
36 Los Angeles 07-05-2026 08:45 7,7 97,9 0 0 250 60,6 1017,5
35 Los Angeles 07-05-2026 08:30 7,6 97,8 0 0 0 44,4 1017,3
34 Los Angeles 07-05-2026 08:15 7,6 97,8 0 0 0 31,9 1017,1
33 Los Angeles 07-05-2026 08:00 7,6 97,8 0 0 0 16,9 1016,8
32 Los Angeles 07-05-2026 07:45 7,3 97,7 0 0 0 4,4 1016,9
31 Los Angeles 07-05-2026 07:30 7,1 97,6 0 0 0 0,6 1016,9
30 Los Angeles 07-05-2026 07:15 7,3 97,6 0 0 0 0,6 1016,9
29 Los Angeles 07-05-2026 07:00 7 97,4 0,2 0 0 0,6 1016,8
28 Los Angeles 07-05-2026 06:45 7,5 97,4 0 0 0 0,6 1016,5
27 Los Angeles 07-05-2026 06:30 7,8 97,4 0 0 358 0,6 1016,4
26 Los Angeles 07-05-2026 06:15 7,8 97,4 0 0 358 0,6 1016,5
25 Los Angeles 07-05-2026 06:00 7,9 97,2 0,2 0 358 0,6 1016,3
24 Los Angeles 07-05-2026 05:45 7,9 97 0 0 338 0,6 1016,1
23 Los Angeles 07-05-2026 05:30 8 96,9 0 0 321 0,6 1016,1
22 Los Angeles 07-05-2026 05:15 8 96,8 0,2 0 321 0,6 1016
21 Los Angeles 07-05-2026 05:00 8 96,8 0 0 321 0,6 1015,8
20 Los Angeles 07-05-2026 04:45 7,8 96,7 0 0 321 0,6 1015,5
19 Los Angeles 07-05-2026 04:30 7,7 96,5 0 0 321 0,6 1015,3
18 Los Angeles 07-05-2026 04:15 7,7 96,4 0 0 321 0,6 1015,5
17 Los Angeles 07-05-2026 04:00 7,5 96 0 0 321 0,6 1015,2
16 Los Angeles 07-05-2026 03:45 7,8 95,9 0 0 321 0,6 1015
15 Los Angeles 07-05-2026 03:30 7,8 95,8 0 0 321 0,6 1015
14 Los Angeles 07-05-2026 03:15 7,8 95,5 0 0 321 0,6 1015
13 Los Angeles 07-05-2026 03:00 8 95,3 0 0 330 0,6 1015
12 Los Angeles 07-05-2026 02:45 7,9 95,2 0 0 38 0,6 1015,1
11 Los Angeles 07-05-2026 02:30 8 95,2 0 0,3 97 0,6 1015,2
10 Los Angeles 07-05-2026 02:15 7,9 95,5 0 0 132 0,6 1014,9
9 Los Angeles 07-05-2026 02:00 7,8 95,5 0 0 131 0,6 1014,7
8 Los Angeles 07-05-2026 01:45 7,4 95,2 0 0 131 0,6 1014,4
7 Los Angeles 07-05-2026 01:30 7,1 95 0 0 131 0,6 1014,5
6 Los Angeles 07-05-2026 01:15 7,1 94,8 0 0 131 0,6 1014,1
5 Los Angeles 07-05-2026 01:00 7 94,8 0 0 131 0,6 1014
4 Los Angeles 07-05-2026 00:45 6,7 93,9 0 0 131 0,6 1013,9
3 Los Angeles 07-05-2026 00:30 7 93,5 0 0 131 0,6 1013,8
2 Los Angeles 07-05-2026 00:15 7,1 93,1 0 0 131 0,6 1014
1 Los Angeles 07-05-2026 00:00 7 92,7 0 0 131 0,6 1013,8